sensor_id;sensor_type;location;lat;lon;timestamp;P1;durP1;ratioP1;P2;durP2;ratioP2
35907;SDS011;22003;50.320;8.054;2023-01-23T00:00:53;10.63;;;5.85;;
35907;SDS011;22003;50.320;8.054;2023-01-23T05:02:40;16.48;;;8.32;;
35907;SDS011;22003;50.320;8.054;2023-01-23T05:05:05;15.55;;;8.68;;
35907;SDS011;22003;50.320;8.054;2023-01-23T05:07:31;19.05;;;8.18;;
35907;SDS011;22003;50.320;8.054;2023-01-23T05:09:57;17.00;;;8.55;;
35907;SDS011;22003;50.320;8.054;2023-01-23T05:12:22;16.98;;;7.78;;
35907;SDS011;22003;50.320;8.054;2023-01-23T05:14:48;19.75;;;9.15;;
35907;SDS011;22003;50.320;8.054;2023-01-23T05:17:13;15.30;;;7.72;;
35907;SDS011;22003;50.320;8.054;2023-01-23T05:19:38;15.93;;;7.57;;
35907;SDS011;22003;50.320;8.054;2023-01-23T05:22:03;17.30;;;8.73;;
35907;SDS011;22003;50.320;8.054;2023-01-23T05:24:29;17.65;;;8.90;;
35907;SDS011;22003;50.320;8.054;2023-01-23T05:26:54;19.02;;;8.63;;
35907;SDS011;22003;50.320;8.054;2023-01-23T05:29:19;19.40;;;9.10;;
35907;SDS011;22003;50.320;8.054;2023-01-23T05:31:44;20.85;;;8.30;;
35907;SDS011;22003;50.320;8.054;2023-01-23T05:34:10;19.77;;;8.13;;
35907;SDS011;22003;50.320;8.054;2023-01-23T05:36:35;23.45;;;8.52;;
35907;SDS011;22003;50.320;8.054;2023-01-23T05:39:00;17.20;;;9.15;;
35907;SDS011;22003;50.320;8.054;2023-01-23T05:41:26;18.95;;;8.77;;
35907;SDS011;22003;50.320;8.054;2023-01-23T05:43:51;16.92;;;8.77;;
35907;SDS011;22003;50.320;8.054;2023-01-23T05:46:16;16.08;;;8.80;;
35907;SDS011;22003;50.320;8.054;2023-01-23T05:48:42;17.90;;;9.05;;
35907;SDS011;22003;50.320;8.054;2023-01-23T05:51:07;14.18;;;7.18;;
35907;SDS011;22003;50.320;8.054;2023-01-23T05:53:32;17.95;;;8.23;;
35907;SDS011;22003;50.320;8.054;2023-01-23T05:55:57;15.98;;;7.00;;
35907;SDS011;22003;50.320;8.054;2023-01-23T05:58:23;12.80;;;6.82;;
35907;SDS011;22003;50.320;8.054;2023-01-23T06:00:48;13.18;;;7.32;;
35907;SDS011;22003;50.320;8.054;2023-01-23T06:03:13;14.68;;;7.68;;
35907;SDS011;22003;50.320;8.054;2023-01-23T06:05:39;14.55;;;7.93;;
35907;SDS011;22003;50.320;8.054;2023-01-23T06:08:05;13.95;;;7.80;;
35907;SDS011;22003;50.320;8.054;2023-01-23T06:10:30;13.98;;;7.40;;
35907;SDS011;22003;50.320;8.054;2023-01-23T06:12:56;11.18;;;7.18;;
35907;SDS011;22003;50.320;8.054;2023-01-23T06:15:21;12.88;;;7.43;;
35907;SDS011;22003;50.320;8.054;2023-01-23T06:17:46;14.77;;;7.25;;
35907;SDS011;22003;50.320;8.054;2023-01-23T06:20:12;16.50;;;7.85;;
35907;SDS011;22003;50.320;8.054;2023-01-23T06:22:37;17.30;;;7.65;;
35907;SDS011;22003;50.320;8.054;2023-01-23T06:25:02;13.88;;;6.82;;
35907;SDS011;22003;50.320;8.054;2023-01-23T06:27:28;14.40;;;7.57;;
35907;SDS011;22003;50.320;8.054;2023-01-23T06:29:53;13.10;;;6.80;;
35907;SDS011;22003;50.320;8.054;2023-01-23T06:32:19;13.77;;;7.38;;
35907;SDS011;22003;50.320;8.054;2023-01-23T06:34:44;13.70;;;7.72;;
35907;SDS011;22003;50.320;8.054;2023-01-23T06:37:09;14.50;;;7.28;;
35907;SDS011;22003;50.320;8.054;2023-01-23T06:39:35;12.38;;;6.88;;
35907;SDS011;22003;50.320;8.054;2023-01-23T06:42:00;14.65;;;6.85;;
35907;SDS011;22003;50.320;8.054;2023-01-23T06:44:25;11.43;;;7.20;;
35907;SDS011;22003;50.320;8.054;2023-01-23T06:46:54;12.32;;;6.72;;
35907;SDS011;22003;50.320;8.054;2023-01-23T06:49:19;12.48;;;7.03;;
35907;SDS011;22003;50.320;8.054;2023-01-23T06:51:44;11.25;;;6.63;;
35907;SDS011;22003;50.320;8.054;2023-01-23T06:54:09;12.38;;;6.68;;
35907;SDS011;22003;50.320;8.054;2023-01-23T06:56:35;13.25;;;7.07;;
35907;SDS011;22003;50.320;8.054;2023-01-23T06:59:00;11.85;;;7.00;;
35907;SDS011;22003;50.320;8.054;2023-01-23T07:01:25;13.43;;;7.45;;
35907;SDS011;22003;50.320;8.054;2023-01-23T07:03:51;12.32;;;7.10;;
35907;SDS011;22003;50.320;8.054;2023-01-23T07:06:16;13.18;;;6.95;;
35907;SDS011;22003;50.320;8.054;2023-01-23T07:08:42;13.20;;;6.72;;
35907;SDS011;22003;50.320;8.054;2023-01-23T07:11:08;11.82;;;6.15;;
35907;SDS011;22003;50.320;8.054;2023-01-23T07:13:33;10.85;;;7.05;;
35907;SDS011;22003;50.320;8.054;2023-01-23T07:15:59;12.55;;;7.32;;
35907;SDS011;22003;50.320;8.054;2023-01-23T07:18:25;11.80;;;6.80;;
35907;SDS011;22003;50.320;8.054;2023-01-23T07:20:52;13.90;;;6.45;;
35907;SDS011;22003;50.320;8.054;2023-01-23T07:23:18;12.32;;;7.82;;
35907;SDS011;22003;50.320;8.054;2023-01-23T07:25:43;10.85;;;6.40;;
35907;SDS011;22003;50.320;8.054;2023-01-23T07:28:09;12.93;;;6.93;;
35907;SDS011;22003;50.320;8.054;2023-01-23T07:30:34;13.13;;;6.70;;
35907;SDS011;22003;50.320;8.054;2023-01-23T07:32:59;13.88;;;7.00;;
35907;SDS011;22003;50.320;8.054;2023-01-23T07:35:25;13.52;;;7.15;;
35907;SDS011;22003;50.320;8.054;2023-01-23T07:37:50;11.35;;;6.82;;
35907;SDS011;22003;50.320;8.054;2023-01-23T07:40:15;13.88;;;7.03;;
35907;SDS011;22003;50.320;8.054;2023-01-23T07:42:41;10.10;;;6.00;;
35907;SDS011;22003;50.320;8.054;2023-01-23T07:45:07;10.13;;;6.10;;
35907;SDS011;22003;50.320;8.054;2023-01-23T07:47:34;9.57;;;5.70;;
35907;SDS011;22003;50.320;8.054;2023-01-23T07:50:00;12.87;;;7.23;;
35907;SDS011;22003;50.320;8.054;2023-01-23T07:52:25;12.55;;;6.93;;
35907;SDS011;22003;50.320;8.054;2023-01-23T07:54:51;15.05;;;8.65;;
35907;SDS011;22003;50.320;8.054;2023-01-23T07:57:16;13.23;;;7.20;;
35907;SDS011;22003;50.320;8.054;2023-01-23T07:59:41;13.55;;;7.38;;
35907;SDS011;22003;50.320;8.054;2023-01-23T08:02:08;13.15;;;7.07;;
35907;SDS011;22003;50.320;8.054;2023-01-23T08:04:35;12.20;;;6.50;;
35907;SDS011;22003;50.320;8.054;2023-01-23T08:07:00;10.73;;;6.68;;
35907;SDS011;22003;50.320;8.054;2023-01-23T08:09:25;14.95;;;7.40;;
35907;SDS011;22003;50.320;8.054;2023-01-23T08:11:51;14.32;;;7.32;;
35907;SDS011;22003;50.320;8.054;2023-01-23T08:14:16;13.82;;;7.00;;
35907;SDS011;22003;50.320;8.054;2023-01-23T08:16:41;14.25;;;8.15;;
35907;SDS011;22003;50.320;8.054;2023-01-23T08:19:07;14.27;;;6.68;;
35907;SDS011;22003;50.320;8.054;2023-01-23T08:21:32;13.68;;;7.63;;
35907;SDS011;22003;50.320;8.054;2023-01-23T08:23:59;12.88;;;7.15;;
35907;SDS011;22003;50.320;8.054;2023-01-23T08:26:25;11.80;;;7.45;;
35907;SDS011;22003;50.320;8.054;2023-01-23T08:28:50;13.50;;;7.95;;
35907;SDS011;22003;50.320;8.054;2023-01-23T08:31:16;11.48;;;7.05;;
35907;SDS011;22003;50.320;8.054;2023-01-23T08:33:41;14.57;;;8.02;;
35907;SDS011;22003;50.320;8.054;2023-01-23T08:36:07;14.40;;;7.78;;
35907;SDS011;22003;50.320;8.054;2023-01-23T08:38:33;14.02;;;8.18;;
35907;SDS011;22003;50.320;8.054;2023-01-23T08:40:59;15.10;;;7.70;;
35907;SDS011;22003;50.320;8.054;2023-01-23T08:43:25;15.00;;;7.47;;
35907;SDS011;22003;50.320;8.054;2023-01-23T08:45:55;14.68;;;7.95;;
35907;SDS011;22003;50.320;8.054;2023-01-23T08:48:22;15.27;;;7.85;;
35907;SDS011;22003;50.320;8.054;2023-01-23T08:50:49;12.27;;;7.63;;
35907;SDS011;22003;50.320;8.054;2023-01-23T08:53:15;12.88;;;6.75;;
35907;SDS011;22003;50.320;8.054;2023-01-23T08:55:40;11.73;;;6.47;;
35907;SDS011;22003;50.320;8.054;2023-01-23T08:58:06;10.57;;;6.07;;
35907;SDS011;22003;50.320;8.054;2023-01-23T09:00:32;14.23;;;8.37;;
35907;SDS011;22003;50.320;8.054;2023-01-23T09:02:58;15.80;;;7.60;;
35907;SDS011;22003;50.320;8.054;2023-01-23T09:05:24;11.83;;;6.70;;
35907;SDS011;22003;50.320;8.054;2023-01-23T09:07:50;11.27;;;6.20;;
35907;SDS011;22003;50.320;8.054;2023-01-23T09:10:16;10.68;;;6.35;;
35907;SDS011;22003;50.320;8.054;2023-01-23T09:12:41;13.02;;;7.20;;
35907;SDS011;22003;50.320;8.054;2023-01-23T09:15:07;13.00;;;6.78;;
35907;SDS011;22003;50.320;8.054;2023-01-23T09:17:33;10.18;;;6.10;;
35907;SDS011;22003;50.320;8.054;2023-01-23T09:19:58;12.77;;;6.65;;
35907;SDS011;22003;50.320;8.054;2023-01-23T09:22:24;12.38;;;6.22;;
35907;SDS011;22003;50.320;8.054;2023-01-23T09:24:50;11.90;;;5.57;;
35907;SDS011;22003;50.320;8.054;2023-01-23T09:27:15;13.35;;;5.75;;
35907;SDS011;22003;50.320;8.054;2023-01-23T09:29:40;12.48;;;6.38;;
35907;SDS011;22003;50.320;8.054;2023-01-23T09:32:06;10.27;;;5.22;;
35907;SDS011;22003;50.320;8.054;2023-01-23T09:34:31;9.63;;;5.80;;
35907;SDS011;22003;50.320;8.054;2023-01-23T09:36:56;11.95;;;6.13;;
35907;SDS011;22003;50.320;8.054;2023-01-23T09:39:21;12.25;;;6.25;;
35907;SDS011;22003;50.320;8.054;2023-01-23T09:41:47;13.43;;;6.30;;
35907;SDS011;22003;50.320;8.054;2023-01-23T09:44:17;8.18;;;5.10;;
35907;SDS011;22003;50.320;8.054;2023-01-23T09:46:50;12.05;;;6.45;;
35907;SDS011;22003;50.320;8.054;2023-01-23T09:52:03;13.20;;;7.57;;
35907;SDS011;22003;50.320;8.054;2023-01-23T09:54:48;11.57;;;7.40;;
35907;SDS011;22003;50.320;8.054;2023-01-23T09:57:19;13.70;;;7.90;;
35907;SDS011;22003;50.320;8.054;2023-01-23T09:59:49;12.88;;;7.47;;
35907;SDS011;22003;50.320;8.054;2023-01-23T10:02:19;12.02;;;7.57;;
35907;SDS011;22003;50.320;8.054;2023-01-23T10:07:16;11.02;;;6.30;;
35907;SDS011;22003;50.320;8.054;2023-01-23T10:13:10;10.60;;;5.68;;
35907;SDS011;22003;50.320;8.054;2023-01-23T10:18:10;9.00;;;5.63;;
35907;SDS011;22003;50.320;8.054;2023-01-23T10:25:56;10.07;;;5.83;;
35907;SDS011;22003;50.320;8.054;2023-01-23T10:28:41;12.20;;;5.95;;
35907;SDS011;22003;50.320;8.054;2023-01-23T10:31:09;9.52;;;5.43;;
35907;SDS011;22003;50.320;8.054;2023-01-23T10:33:48;12.43;;;6.68;;
35907;SDS011;22003;50.320;8.054;2023-01-23T10:36:36;10.55;;;5.78;;
35907;SDS011;22003;50.320;8.054;2023-01-23T10:39:11;10.70;;;5.82;;
35907;SDS011;22003;50.320;8.054;2023-01-23T10:41:44;11.17;;;6.30;;
35907;SDS011;22003;50.320;8.054;2023-01-23T10:44:14;8.50;;;5.50;;
35907;SDS011;22003;50.320;8.054;2023-01-23T10:46:51;12.07;;;7.18;;
35907;SDS011;22003;50.320;8.054;2023-01-23T10:49:27;12.52;;;6.32;;
35907;SDS011;22003;50.320;8.054;2023-01-23T10:54:24;11.55;;;6.15;;
35907;SDS011;22003;50.320;8.054;2023-01-23T10:56:59;12.07;;;6.63;;
35907;SDS011;22003;50.320;8.054;2023-01-23T11:04:36;13.30;;;7.10;;
35907;SDS011;22003;50.320;8.054;2023-01-23T11:07:12;10.95;;;6.20;;
35907;SDS011;22003;50.320;8.054;2023-01-23T11:12:20;11.18;;;5.55;;
35907;SDS011;22003;50.320;8.054;2023-01-23T11:15:19;12.13;;;6.68;;
35907;SDS011;22003;50.320;8.054;2023-01-23T11:17:52;11.98;;;6.13;;
35907;SDS011;22003;50.320;8.054;2023-01-23T11:20:53;10.65;;;6.20;;
35907;SDS011;22003;50.320;8.054;2023-01-23T11:23:17;11.73;;;5.88;;
35907;SDS011;22003;50.320;8.054;2023-01-23T11:25:49;9.30;;;5.43;;
35907;SDS011;22003;50.320;8.054;2023-01-23T11:28:23;11.90;;;6.63;;
35907;SDS011;22003;50.320;8.054;2023-01-23T11:30:57;11.55;;;6.95;;
35907;SDS011;22003;50.320;8.054;2023-01-23T11:35:51;12.40;;;6.90;;
35907;SDS011;22003;50.320;8.054;2023-01-23T11:38:34;14.57;;;7.40;;
35907;SDS011;22003;50.320;8.054;2023-01-23T11:41:04;19.45;;;8.18;;
35907;SDS011;22003;50.320;8.054;2023-01-23T11:43:35;13.18;;;7.70;;
35907;SDS011;22003;50.320;8.054;2023-01-23T11:46:06;11.63;;;7.28;;
35907;SDS011;22003;50.320;8.054;2023-01-23T11:48:47;14.00;;;7.00;;
35907;SDS011;22003;50.320;8.054;2023-01-23T11:57:00;9.88;;;6.50;;
35907;SDS011;22003;50.320;8.054;2023-01-23T12:02:34;16.77;;;7.55;;
35907;SDS011;22003;50.320;8.054;2023-01-23T12:13:45;16.50;;;7.90;;
35907;SDS011;22003;50.320;8.054;2023-01-23T12:28:25;16.35;;;7.78;;
35907;SDS011;22003;50.320;8.054;2023-01-23T12:31:14;15.02;;;7.00;;
35907;SDS011;22003;50.320;8.054;2023-01-23T12:33:49;15.23;;;7.53;;
35907;SDS011;22003;50.320;8.054;2023-01-23T12:39:38;15.25;;;7.50;;
35907;SDS011;22003;50.320;8.054;2023-01-23T12:42:11;14.00;;;7.38;;
35907;SDS011;22003;50.320;8.054;2023-01-23T12:47:38;13.00;;;6.63;;
35907;SDS011;22003;50.320;8.054;2023-01-23T12:50:14;13.93;;;7.82;;
35907;SDS011;22003;50.320;8.054;2023-01-23T12:52:51;13.65;;;7.32;;
35907;SDS011;22003;50.320;8.054;2023-01-23T12:57:51;16.90;;;8.10;;
35907;SDS011;22003;50.320;8.054;2023-01-23T13:03:00;14.47;;;7.60;;
35907;SDS011;22003;50.320;8.054;2023-01-23T13:05:59;12.55;;;6.95;;
35907;SDS011;22003;50.320;8.054;2023-01-23T13:08:55;17.40;;;8.43;;
35907;SDS011;22003;50.320;8.054;2023-01-23T13:11:39;13.68;;;7.38;;
35907;SDS011;22003;50.320;8.054;2023-01-23T13:17:14;14.57;;;6.60;;
35907;SDS011;22003;50.320;8.054;2023-01-23T13:19:50;14.50;;;7.65;;
35907;SDS011;22003;50.320;8.054;2023-01-23T13:22:34;13.63;;;7.38;;
35907;SDS011;22003;50.320;8.054;2023-01-23T13:25:10;16.17;;;7.97;;
35907;SDS011;22003;50.320;8.054;2023-01-23T13:32:59;14.85;;;7.93;;
35907;SDS011;22003;50.320;8.054;2023-01-23T13:41:09;14.65;;;7.28;;
35907;SDS011;22003;50.320;8.054;2023-01-23T13:52:11;16.42;;;7.93;;
35907;SDS011;22003;50.320;8.054;2023-01-23T13:54:57;14.52;;;7.75;;
35907;SDS011;22003;50.320;8.054;2023-01-23T13:57:44;16.73;;;8.23;;
35907;SDS011;22003;50.320;8.054;2023-01-23T14:00:19;16.25;;;7.38;;
35907;SDS011;22003;50.320;8.054;2023-01-23T14:02:52;14.40;;;7.20;;
35907;SDS011;22003;50.320;8.054;2023-01-23T14:05:40;18.38;;;8.27;;
35907;SDS011;22003;50.320;8.054;2023-01-23T14:08:06;14.50;;;7.53;;
35907;SDS011;22003;50.320;8.054;2023-01-23T14:10:43;16.67;;;8.05;;
35907;SDS011;22003;50.320;8.054;2023-01-23T14:13:12;15.32;;;7.88;;
35907;SDS011;22003;50.320;8.054;2023-01-23T14:15:39;17.27;;;8.63;;
35907;SDS011;22003;50.320;8.054;2023-01-23T14:21:31;15.05;;;7.55;;
35907;SDS011;22003;50.320;8.054;2023-01-23T14:23:52;16.98;;;8.05;;
35907;SDS011;22003;50.320;8.054;2023-01-23T14:26:23;16.58;;;7.38;;
35907;SDS011;22003;50.320;8.054;2023-01-23T14:28:50;17.45;;;7.50;;
35907;SDS011;22003;50.320;8.054;2023-01-23T14:31:26;14.25;;;7.43;;
35907;SDS011;22003;50.320;8.054;2023-01-23T14:34:03;11.90;;;6.55;;
35907;SDS011;22003;50.320;8.054;2023-01-23T14:36:30;13.80;;;7.20;;
35907;SDS011;22003;50.320;8.054;2023-01-23T14:38:58;15.60;;;8.00;;
35907;SDS011;22003;50.320;8.054;2023-01-23T14:41:27;15.45;;;7.65;;
35907;SDS011;22003;50.320;8.054;2023-01-23T14:43:56;14.70;;;7.20;;
35907;SDS011;22003;50.320;8.054;2023-01-23T14:46:33;15.13;;;7.65;;
35907;SDS011;22003;50.320;8.054;2023-01-23T14:49:00;13.50;;;7.07;;
35907;SDS011;22003;50.320;8.054;2023-01-23T14:51:27;12.90;;;5.53;;
35907;SDS011;22003;50.320;8.054;2023-01-23T14:53:54;11.85;;;7.10;;
35907;SDS011;22003;50.320;8.054;2023-01-23T14:56:23;14.27;;;7.30;;
35907;SDS011;22003;50.320;8.054;2023-01-23T14:58:51;15.27;;;7.80;;
35907;SDS011;22003;50.320;8.054;2023-01-23T15:01:18;17.48;;;8.32;;
35907;SDS011;22003;50.320;8.054;2023-01-23T15:03:53;13.93;;;8.13;;
35907;SDS011;22003;50.320;8.054;2023-01-23T15:06:43;14.68;;;8.10;;
35907;SDS011;22003;50.320;8.054;2023-01-23T15:09:16;16.42;;;8.02;;
35907;SDS011;22003;50.320;8.054;2023-01-23T15:11:42;17.90;;;8.50;;
35907;SDS011;22003;50.320;8.054;2023-01-23T15:14:21;15.18;;;7.35;;
35907;SDS011;22003;50.320;8.054;2023-01-23T15:17:00;13.20;;;6.85;;
35907;SDS011;22003;50.320;8.054;2023-01-23T15:22:04;14.13;;;6.97;;
35907;SDS011;22003;50.320;8.054;2023-01-23T15:24:31;15.38;;;8.13;;
35907;SDS011;22003;50.320;8.054;2023-01-23T15:29:23;14.30;;;7.63;;
35907;SDS011;22003;50.320;8.054;2023-01-23T15:31:50;16.95;;;8.32;;
35907;SDS011;22003;50.320;8.054;2023-01-23T15:37:04;13.65;;;7.65;;
35907;SDS011;22003;50.320;8.054;2023-01-23T15:39:59;17.35;;;7.78;;
35907;SDS011;22003;50.320;8.054;2023-01-23T15:42:32;15.63;;;7.55;;
35907;SDS011;22003;50.320;8.054;2023-01-23T15:44:59;15.57;;;7.93;;
35907;SDS011;22003;50.320;8.054;2023-01-23T15:47:28;17.25;;;6.88;;
35907;SDS011;22003;50.320;8.054;2023-01-23T15:49:54;16.10;;;8.82;;
35907;SDS011;22003;50.320;8.054;2023-01-23T15:54:51;20.88;;;8.18;;
35907;SDS011;22003;50.320;8.054;2023-01-23T15:57:19;15.38;;;7.50;;
35907;SDS011;22003;50.320;8.054;2023-01-23T15:59:44;14.13;;;8.00;;
35907;SDS011;22003;50.320;8.054;2023-01-23T16:02:17;15.40;;;7.47;;
35907;SDS011;22003;50.320;8.054;2023-01-23T16:04:44;15.40;;;8.65;;
35907;SDS011;22003;50.320;8.054;2023-01-23T16:07:15;16.30;;;8.75;;
35907;SDS011;22003;50.320;8.054;2023-01-23T16:09:45;11.93;;;7.45;;
35907;SDS011;22003;50.320;8.054;2023-01-23T16:12:14;11.68;;;6.57;;
35907;SDS011;22003;50.320;8.054;2023-01-23T16:14:42;12.68;;;7.53;;
35907;SDS011;22003;50.320;8.054;2023-01-23T16:17:07;15.43;;;7.55;;
35907;SDS011;22003;50.320;8.054;2023-01-23T16:19:32;18.23;;;7.47;;
35907;SDS011;22003;50.320;8.054;2023-01-23T16:21:58;13.02;;;7.32;;
35907;SDS011;22003;50.320;8.054;2023-01-23T16:24:24;12.25;;;7.28;;
35907;SDS011;22003;50.320;8.054;2023-01-23T16:26:50;11.95;;;7.57;;
35907;SDS011;22003;50.320;8.054;2023-01-23T16:29:22;19.98;;;7.63;;
35907;SDS011;22003;50.320;8.054;2023-01-23T16:31:56;14.55;;;8.00;;
35907;SDS011;22003;50.320;8.054;2023-01-23T16:34:22;11.47;;;6.70;;
35907;SDS011;22003;50.320;8.054;2023-01-23T16:36:49;15.05;;;7.70;;
35907;SDS011;22003;50.320;8.054;2023-01-23T16:39:16;13.68;;;6.60;;
35907;SDS011;22003;50.320;8.054;2023-01-23T16:41:44;12.13;;;7.18;;
35907;SDS011;22003;50.320;8.054;2023-01-23T16:44:11;12.57;;;7.07;;
35907;SDS011;22003;50.320;8.054;2023-01-23T16:46:38;8.43;;;5.15;;
35907;SDS011;22003;50.320;8.054;2023-01-23T16:49:03;13.40;;;6.22;;
35907;SDS011;22003;50.320;8.054;2023-01-23T16:51:28;12.38;;;5.97;;
35907;SDS011;22003;50.320;8.054;2023-01-23T16:53:55;10.07;;;5.68;;
35907;SDS011;22003;50.320;8.054;2023-01-23T16:56:24;11.02;;;6.03;;
35907;SDS011;22003;50.320;8.054;2023-01-23T16:58:53;11.23;;;5.75;;
35907;SDS011;22003;50.320;8.054;2023-01-23T17:01:19;13.02;;;5.25;;
35907;SDS011;22003;50.320;8.054;2023-01-23T17:03:53;10.43;;;6.65;;
35907;SDS011;22003;50.320;8.054;2023-01-23T17:06:21;12.27;;;6.90;;
35907;SDS011;22003;50.320;8.054;2023-01-23T17:08:46;12.60;;;6.15;;
35907;SDS011;22003;50.320;8.054;2023-01-23T17:11:16;11.43;;;6.10;;
35907;SDS011;22003;50.320;8.054;2023-01-23T17:13:45;10.50;;;6.13;;
35907;SDS011;22003;50.320;8.054;2023-01-23T17:16:11;9.70;;;5.15;;
35907;SDS011;22003;50.320;8.054;2023-01-23T17:18:36;9.52;;;5.97;;
35907;SDS011;22003;50.320;8.054;2023-01-23T17:21:02;9.77;;;5.35;;
35907;SDS011;22003;50.320;8.054;2023-01-23T17:23:29;12.98;;;6.68;;
35907;SDS011;22003;50.320;8.054;2023-01-23T17:25:55;13.07;;;6.68;;
35907;SDS011;22003;50.320;8.054;2023-01-23T17:28:20;10.48;;;6.03;;
35907;SDS011;22003;50.320;8.054;2023-01-23T17:30:47;12.48;;;6.78;;
35907;SDS011;22003;50.320;8.054;2023-01-23T17:33:17;13.27;;;7.20;;
35907;SDS011;22003;50.320;8.054;2023-01-23T17:35:45;10.23;;;6.38;;
35907;SDS011;22003;50.320;8.054;2023-01-23T17:38:15;13.27;;;6.97;;
35907;SDS011;22003;50.320;8.054;2023-01-23T17:40:41;14.90;;;7.05;;
35907;SDS011;22003;50.320;8.054;2023-01-23T17:43:07;8.73;;;5.93;;
35907;SDS011;22003;50.320;8.054;2023-01-23T17:45:34;11.00;;;7.10;;
35907;SDS011;22003;50.320;8.054;2023-01-23T17:48:00;12.48;;;5.97;;
35907;SDS011;22003;50.320;8.054;2023-01-23T17:50:25;12.10;;;6.32;;
35907;SDS011;22003;50.320;8.054;2023-01-23T17:52:51;11.60;;;6.07;;
35907;SDS011;22003;50.320;8.054;2023-01-23T17:55:22;15.13;;;7.28;;
35907;SDS011;22003;50.320;8.054;2023-01-23T17:57:49;12.70;;;6.80;;
35907;SDS011;22003;50.320;8.054;2023-01-23T18:00:16;13.13;;;6.25;;
35907;SDS011;22003;50.320;8.054;2023-01-23T18:02:43;12.18;;;6.65;;
35907;SDS011;22003;50.320;8.054;2023-01-23T18:05:11;14.40;;;6.90;;
35907;SDS011;22003;50.320;8.054;2023-01-23T18:07:37;8.32;;;5.03;;
35907;SDS011;22003;50.320;8.054;2023-01-23T18:10:06;10.70;;;6.38;;
35907;SDS011;22003;50.320;8.054;2023-01-23T18:12:40;11.60;;;6.90;;
35907;SDS011;22003;50.320;8.054;2023-01-23T18:15:18;13.90;;;7.72;;
35907;SDS011;22003;50.320;8.054;2023-01-23T18:20:27;12.70;;;6.93;;
35907;SDS011;22003;50.320;8.054;2023-01-23T18:22:54;15.15;;;7.45;;
35907;SDS011;22003;50.320;8.054;2023-01-23T18:25:20;14.75;;;7.90;;
35907;SDS011;22003;50.320;8.054;2023-01-23T18:33:27;12.52;;;7.50;;
35907;SDS011;22003;50.320;8.054;2023-01-23T18:39:18;14.00;;;7.88;;
35907;SDS011;22003;50.320;8.054;2023-01-23T18:44:51;14.77;;;7.18;;
35907;SDS011;22003;50.320;8.054;2023-01-23T18:47:22;12.18;;;7.18;;
35907;SDS011;22003;50.320;8.054;2023-01-23T18:49:49;14.93;;;7.38;;
35907;SDS011;22003;50.320;8.054;2023-01-23T18:52:15;12.73;;;7.32;;
35907;SDS011;22003;50.320;8.054;2023-01-23T19:00:33;15.05;;;7.97;;
35907;SDS011;22003;50.320;8.054;2023-01-23T19:03:09;16.98;;;9.00;;
35907;SDS011;22003;50.320;8.054;2023-01-23T19:05:37;18.23;;;9.32;;
35907;SDS011;22003;50.320;8.054;2023-01-23T19:08:03;18.17;;;9.45;;
35907;SDS011;22003;50.320;8.054;2023-01-23T19:10:30;16.20;;;9.30;;
35907;SDS011;22003;50.320;8.054;2023-01-23T19:18:19;13.93;;;7.53;;
35907;SDS011;22003;50.320;8.054;2023-01-23T19:21:15;16.15;;;8.50;;
35907;SDS011;22003;50.320;8.054;2023-01-23T19:23:54;16.45;;;8.63;;
35907;SDS011;22003;50.320;8.054;2023-01-23T19:26:31;16.58;;;9.07;;
35907;SDS011;22003;50.320;8.054;2023-01-23T19:28:58;16.63;;;9.10;;
35907;SDS011;22003;50.320;8.054;2023-01-23T19:31:26;14.93;;;8.60;;
35907;SDS011;22003;50.320;8.054;2023-01-23T19:33:55;14.43;;;8.93;;
35907;SDS011;22003;50.320;8.054;2023-01-23T19:36:22;13.15;;;7.38;;
35907;SDS011;22003;50.320;8.054;2023-01-23T19:38:48;14.57;;;7.97;;
35907;SDS011;22003;50.320;8.054;2023-01-23T19:41:18;14.65;;;7.80;;
35907;SDS011;22003;50.320;8.054;2023-01-23T19:43:46;14.35;;;8.77;;
35907;SDS011;22003;50.320;8.054;2023-01-23T19:46:16;14.52;;;8.80;;
35907;SDS011;22003;50.320;8.054;2023-01-23T19:48:43;16.23;;;7.57;;
35907;SDS011;22003;50.320;8.054;2023-01-23T19:51:09;12.82;;;7.28;;
35907;SDS011;22003;50.320;8.054;2023-01-23T19:53:37;14.90;;;7.82;;
35907;SDS011;22003;50.320;8.054;2023-01-23T19:56:02;14.73;;;8.73;;
35907;SDS011;22003;50.320;8.054;2023-01-23T19:58:27;14.27;;;7.93;;
35907;SDS011;22003;50.320;8.054;2023-01-23T20:00:52;13.50;;;7.93;;
35907;SDS011;22003;50.320;8.054;2023-01-23T20:03:18;13.93;;;6.80;;
35907;SDS011;22003;50.320;8.054;2023-01-23T20:05:43;14.32;;;7.80;;
35907;SDS011;22003;50.320;8.054;2023-01-23T20:08:08;14.60;;;8.00;;
35907;SDS011;22003;50.320;8.054;2023-01-23T20:10:33;12.75;;;6.35;;
35907;SDS011;22003;50.320;8.054;2023-01-23T20:12:59;15.38;;;8.23;;
35907;SDS011;22003;50.320;8.054;2023-01-23T20:15:24;15.43;;;9.00;;
35907;SDS011;22003;50.320;8.054;2023-01-23T20:17:51;13.00;;;7.72;;
35907;SDS011;22003;50.320;8.054;2023-01-23T20:20:17;14.27;;;7.05;;
35907;SDS011;22003;50.320;8.054;2023-01-23T20:22:43;13.80;;;7.72;;
35907;SDS011;22003;50.320;8.054;2023-01-23T20:25:09;12.02;;;6.95;;
35907;SDS011;22003;50.320;8.054;2023-01-23T20:27:37;14.13;;;8.43;;
35907;SDS011;22003;50.320;8.054;2023-01-23T20:30:04;14.75;;;8.75;;
35907;SDS011;22003;50.320;8.054;2023-01-23T20:32:31;12.50;;;7.68;;
35907;SDS011;22003;50.320;8.054;2023-01-23T20:34:57;14.82;;;7.55;;
35907;SDS011;22003;50.320;8.054;2023-01-23T20:37:22;14.57;;;7.85;;
35907;SDS011;22003;50.320;8.054;2023-01-23T20:39:47;14.82;;;8.45;;
35907;SDS011;22003;50.320;8.054;2023-01-23T20:42:13;12.32;;;7.60;;
35907;SDS011;22003;50.320;8.054;2023-01-23T20:44:38;15.02;;;8.60;;
35907;SDS011;22003;50.320;8.054;2023-01-23T20:47:03;12.20;;;7.68;;
35907;SDS011;22003;50.320;8.054;2023-01-23T20:49:29;15.68;;;8.85;;
35907;SDS011;22003;50.320;8.054;2023-01-23T20:51:54;15.70;;;8.75;;
35907;SDS011;22003;50.320;8.054;2023-01-23T20:54:39;14.57;;;8.48;;
35907;SDS011;22003;50.320;8.054;2023-01-23T20:57:05;15.93;;;8.20;;
35907;SDS011;22003;50.320;8.054;2023-01-23T20:59:30;11.10;;;6.68;;
35907;SDS011;22003;50.320;8.054;2023-01-23T21:01:55;11.65;;;7.20;;
35907;SDS011;22003;50.320;8.054;2023-01-23T21:04:39;12.90;;;8.07;;
35907;SDS011;22003;50.320;8.054;2023-01-23T21:07:04;14.38;;;8.15;;
35907;SDS011;22003;50.320;8.054;2023-01-23T21:09:30;14.35;;;7.53;;
35907;SDS011;22003;50.320;8.054;2023-01-23T21:11:55;15.27;;;7.55;;
35907;SDS011;22003;50.320;8.054;2023-01-23T21:14:21;13.85;;;7.72;;
35907;SDS011;22003;50.320;8.054;2023-01-23T21:16:47;12.98;;;7.63;;
35907;SDS011;22003;50.320;8.054;2023-01-23T21:19:12;14.55;;;7.70;;
35907;SDS011;22003;50.320;8.054;2023-01-23T21:21:38;14.82;;;7.78;;
35907;SDS011;22003;50.320;8.054;2023-01-23T21:24:04;12.77;;;6.97;;
35907;SDS011;22003;50.320;8.054;2023-01-23T21:26:30;14.30;;;8.02;;
35907;SDS011;22003;50.320;8.054;2023-01-23T21:28:55;13.00;;;7.00;;
35907;SDS011;22003;50.320;8.054;2023-01-23T21:31:23;14.52;;;7.50;;
35907;SDS011;22003;50.320;8.054;2023-01-23T21:33:53;12.98;;;7.40;;
35907;SDS011;22003;50.320;8.054;2023-01-23T21:36:20;14.35;;;7.53;;
35907;SDS011;22003;50.320;8.054;2023-01-23T21:41:12;13.20;;;7.60;;
35907;SDS011;22003;50.320;8.054;2023-01-23T21:43:38;13.35;;;7.60;;
35907;SDS011;22003;50.320;8.054;2023-01-23T21:46:03;11.38;;;6.55;;
35907;SDS011;22003;50.320;8.054;2023-01-23T21:48:29;14.32;;;7.95;;
35907;SDS011;22003;50.320;8.054;2023-01-23T21:51:28;12.80;;;7.90;;
35907;SDS011;22003;50.320;8.054;2023-01-23T21:53:49;13.75;;;7.47;;
35907;SDS011;22003;50.320;8.054;2023-01-23T21:56:16;15.88;;;7.53;;
35907;SDS011;22003;50.320;8.054;2023-01-23T21:58:43;12.27;;;6.68;;